Providence, Rhode Island
Traffic Map
Current Weather Conditions
Providence, Rhode Island
Broken Clouds
Broken Clouds

Feels Like: 8°
Wind Chill: Ceiling: 3300
Heat Index: Visibility: 10mi
Dew Point: Wind: 0mph
Humidity: 86% Direction: ° ()
Pressure: 29.98in Gusts: 0mph
Raw Report DataKPVD 210651Z 00000KT 10SM BKN033 BKN065 08/06 A2998 RMK AO2 SLP153 T00780056
Traffic Incident Summary
Active as of:
Severity:
Category:
InformationThere was an issue retrieving the traffic information for this location. Please try a different location or try again shortly.
Advertisements
Track Severe Weather on mobile